M/V Yankee Clipper — WDC3923 — position and weather

sailwx.info

Track history (hours):
 
Tides and Currents Weather Stations Pressure Air Temp Water Temp Dewpoint Dewpoint Depression Visibility Wind Speed Wind Dir Waves Ship Positions

M/V Yankee Clipper

Owner: M/V Yankee Clipper, Inc., Seattle, WA. More information available from US FCC via Universal Licensing System and Coast Guard Vessel Documentation Center.

Last reported at 2014-Aug-30 15:32 UTC. Time now 2014-Oct-25 00:45 UTC.
Position N 47°40' W 122°23'.
Warning: this ship's position is 55 days out of date.

Length 27 m; draft 4 m.

Type: Fishing. MMSI: 367016340.

Date/timePositionNaut miles runAvg speedWind from/ knotsBaromVisibWave heightAir tempDewpointWater temp
2014-Aug-30 15:32N 47°40' W 122°23'0 0.0
2014-Aug-30 14:33N 47°40' W 122°23'0 0.0
2014-Aug-30 13:33N 47°40' W 122°23'0 0.0
2014-Aug-30 12:33N 47°40' W 122°23'0 0.0
2014-Aug-30 11:33N 47°40' W 122°23'0 0.0
2014-Aug-30 10:33N 47°40' W 122°23'0 0.0
2014-Aug-30 09:33N 47°40' W 122°23'0 0.0
2014-Aug-30 08:33N 47°40' W 122°23'0 0.0
2014-Aug-30 07:33N 47°40' W 122°23'0 0.0
2014-Aug-30 06:33N 47°40' W 122°23'0 0.0
2014-Aug-30 05:33N 47°40' W 122°23'0 0.0
2014-Aug-30 04:33N 47°40' W 122°23'0 0.0
2014-Aug-30 03:33N 47°40' W 122°23'0 0.0
2014-Aug-30 02:33N 47°40' W 122°23'0 0.0
2014-Aug-30 01:33N 47°40' W 122°23'0 0.0
2014-Aug-30 00:33N 47°40' W 122°23'0 0.0
2014-Aug-29 23:33N 47°40' W 122°23'0 0.0
2014-Aug-29 22:33N 47°40' W 122°23'1 0.6
2014-Aug-29 21:33N 47°40' W 122°23'0 0.4
2014-Aug-29 20:33N 47°40' W 122°24'6 6.0
2014-Aug-29 19:33N 47°46' W 122°27'9 8.5
2014-Aug-29 18:33N 47°54' W 122°30'7 6.8
2014-Aug-29 17:31N 47°59' W 122°37'17 7.2
2014-Aug-29 15:09N 48°14' W 122°49'14 8.9
2014-Aug-29 13:33N 48°28' W 122°44'8 7.9
2014-Aug-29 12:33N 48°36' W 122°46'7 7.4
2014-Aug-29 11:33N 48°43' W 122°46'8 8.3
2014-Aug-29 10:33N 48°48' W 122°56'9 9.3
2014-Aug-29 09:33N 48°53' W 123°08'10 9.8
2014-Aug-29 08:33N 48°59' W 123°19'10 9.7
2014-Aug-29 07:33N 49°06' W 123°30'9 9.2
2014-Aug-29 06:33N 49°12' W 123°41'9 9.3
2014-Aug-29 05:33N 49°16' W 123°53'9 9.4
2014-Aug-29 04:33N 49°21' W 124°05'9 9.0
2014-Aug-29 03:33N 49°26' W 124°17'17 8.7
2014-Aug-29 01:33N 49°37' W 124°37'9 8.6
2014-Aug-29 00:33N 49°43' W 124°47'86 7.1
2014-Aug-28 12:31N 50°31' W 126°37'8 8.0
2014-Aug-28 11:33N 50°37' W 126°46'10 8.8
2014-Aug-28 10:26N 50°43' W 126°58'8 8.5
2014-Aug-28 09:33N 50°48' W 127°07'9 8.6
2014-Aug-28 08:33N 50°52' W 127°19'9 9.0
2014-Aug-28 07:32N 50°58' W 127°30'8 8.5
2014-Aug-28 06:33N 51°03' W 127°40'9 8.6
2014-Aug-28 05:33N 51°09' W 127°50'9 8.7
2014-Aug-28 04:33N 51°18' W 127°52'9 8.9
2014-Aug-28 03:30N 51°27' W 127°51'28 8.7
2014-Aug-28 00:18N 51°55' W 127°56'7 9.0
2014-Aug-27 23:33N 52°02' W 127°56'8 7.0
2014-Aug-27 22:20N 52°06' W 128°08'6 8.1
2014-Aug-27 21:33N 52°13' W 128°08'9 9.2
2014-Aug-27 20:33N 52°15' W 128°23'138 8.1
2014-Aug-27 03:23N 54°12' W 130°27'8 9.3
2014-Aug-27 02:33N 54°18' W 130°34'9 9.3
2014-Aug-27 01:33N 54°27' W 130°40'  
Track history (hours):
 
Tides and Currents Weather Stations Pressure Air Temp Water Temp Dewpoint Dewpoint Depression Visibility Wind Speed Wind Dir Waves Ship Positions

M/V Yankee Clipper

Owner: M/V Yankee Clipper, Inc., Seattle, WA. More information available from US FCC via Universal Licensing System and Coast Guard Vessel Documentation Center.

Last reported at 2014-Aug-30 15:32 UTC. Time now 2014-Oct-25 00:45 UTC.
Position N 47°40' W 122°23'.
Warning: this ship's position is 55 days out of date.

Length 27 m; draft 4 m.

Type: Fishing. MMSI: 367016340.

Date/timePositionNaut miles runAvg speedWind from/ knotsBaromVisibWave heightAir tempDewpointWater temp
2014-Aug-30 15:32N 47°40' W 122°23'0 0.0
2014-Aug-30 14:33N 47°40' W 122°23'0 0.0
2014-Aug-30 13:33N 47°40' W 122°23'0 0.0
2014-Aug-30 12:33N 47°40' W 122°23'0 0.0
2014-Aug-30 11:33N 47°40' W 122°23'0 0.0
2014-Aug-30 10:33N 47°40' W 122°23'0 0.0
2014-Aug-30 09:33N 47°40' W 122°23'0 0.0
2014-Aug-30 08:33N 47°40' W 122°23'0 0.0
2014-Aug-30 07:33N 47°40' W 122°23'0 0.0
2014-Aug-30 06:33N 47°40' W 122°23'0 0.0
2014-Aug-30 05:33N 47°40' W 122°23'0 0.0
2014-Aug-30 04:33N 47°40' W 122°23'0 0.0
2014-Aug-30 03:33N 47°40' W 122°23'0 0.0
2014-Aug-30 02:33N 47°40' W 122°23'0 0.0
2014-Aug-30 01:33N 47°40' W 122°23'0 0.0
2014-Aug-30 00:33N 47°40' W 122°23'0 0.0
2014-Aug-29 23:33N 47°40' W 122°23'0 0.0
2014-Aug-29 22:33N 47°40' W 122°23'1 0.6
2014-Aug-29 21:33N 47°40' W 122°23'0 0.4
2014-Aug-29 20:33N 47°40' W 122°24'6 6.0
2014-Aug-29 19:33N 47°46' W 122°27'9 8.5
2014-Aug-29 18:33N 47°54' W 122°30'7 6.8
2014-Aug-29 17:31N 47°59' W 122°37'17 7.2
2014-Aug-29 15:09N 48°14' W 122°49'14 8.9
2014-Aug-29 13:33N 48°28' W 122°44'8 7.9
2014-Aug-29 12:33N 48°36' W 122°46'7 7.4
2014-Aug-29 11:33N 48°43' W 122°46'8 8.3
2014-Aug-29 10:33N 48°48' W 122°56'9 9.3
2014-Aug-29 09:33N 48°53' W 123°08'10 9.8
2014-Aug-29 08:33N 48°59' W 123°19'10 9.7
2014-Aug-29 07:33N 49°06' W 123°30'9 9.2
2014-Aug-29 06:33N 49°12' W 123°41'9 9.3
2014-Aug-29 05:33N 49°16' W 123°53'9 9.4
2014-Aug-29 04:33N 49°21' W 124°05'9 9.0
2014-Aug-29 03:33N 49°26' W 124°17'17 8.7
2014-Aug-29 01:33N 49°37' W 124°37'9 8.6
2014-Aug-29 00:33N 49°43' W 124°47'86 7.1
2014-Aug-28 12:31N 50°31' W 126°37'8 8.0
2014-Aug-28 11:33N 50°37' W 126°46'10 8.8
2014-Aug-28 10:26N 50°43' W 126°58'8 8.5
2014-Aug-28 09:33N 50°48' W 127°07'9 8.6
2014-Aug-28 08:33N 50°52' W 127°19'9 9.0
2014-Aug-28 07:32N 50°58' W 127°30'8 8.5
2014-Aug-28 06:33N 51°03' W 127°40'9 8.6
2014-Aug-28 05:33N 51°09' W 127°50'9 8.7
2014-Aug-28 04:33N 51°18' W 127°52'9 8.9
2014-Aug-28 03:30N 51°27' W 127°51'28 8.7
2014-Aug-28 00:18N 51°55' W 127°56'7 9.0
2014-Aug-27 23:33N 52°02' W 127°56'8 7.0
2014-Aug-27 22:20N 52°06' W 128°08'6 8.1
2014-Aug-27 21:33N 52°13' W 128°08'9 9.2
2014-Aug-27 20:33N 52°15' W 128°23'138 8.1
2014-Aug-27 03:23N 54°12' W 130°27'8 9.3
2014-Aug-27 02:33N 54°18' W 130°34'9 9.3
2014-Aug-27 01:33N 54°27' W 130°40'  

Dump ship's entire track history